Time,TemperatureF,DewpointF,PressureIn,WindDirection,WindDirectionDegrees,WindSpeedMPH,WindSpeedGustMPH,Humidity,HourlyPrecipIn,Conditions,Clouds,dailyrainin,SoftwareType,DateUTC
2013-04-18 00:01:00,54.7,44.0,30.09,WNW,299,0.0,0.0,68,0.00,,,0.00,weatherlink.com 1.10,2013-04-18 07:01:00,
2013-04-18 00:16:00,54.3,44.0,30.09,WNW,300,0.0,0.0,69,0.00,,,0.00,weatherlink.com 1.10,2013-04-18 07:16:00,
2013-04-18 00:46:00,53.2,44.0,30.10,WNW,300,0.0,0.0,71,0.00,,,0.00,weatherlink.com 1.10,2013-04-18 07:46:00,
2013-04-18 01:01:00,52.7,44.0,30.10,WNW,300,0.0,0.0,73,0.00,,,0.00,weatherlink.com 1.10,2013-04-18 08:01:00,
2013-04-18 01:16:00,52.6,44.0,30.10,WNW,300,0.0,0.0,73,0.00,,,0.00,weatherlink.com 1.10,2013-04-18 08:16:00,
2013-04-18 01:31:00,52.2,44.0,30.10,WNW,300,0.0,0.0,74,0.00,,,0.00,weatherlink.com 1.10,2013-04-18 08:31:00,
2013-04-18 01:46:00,51.7,44.0,30.09,WNW,298,0.0,0.0,75,0.00,,,0.00,weatherlink.com 1.10,2013-04-18 08:46:00,
2013-04-18 02:01:00,51.4,44.0,30.09,WNW,299,0.0,0.0,75,0.00,,,0.00,weatherlink.com 1.10,2013-04-18 09:01:00,
2013-04-18 02:31:00,50.7,44.0,30.09,WNW,298,0.0,0.0,77,0.00,,,0.00,weatherlink.com 1.10,2013-04-18 09:31:00,
2013-04-18 02:46:00,50.6,43.0,30.08,WNW,298,0.0,0.0,76,0.00,,,0.00,weatherlink.com 1.10,2013-04-18 09:46:00,
2013-04-18 03:01:00,50.6,44.0,30.08,WNW,298,0.0,0.0,77,0.00,,,0.00,weatherlink.com 1.10,2013-04-18 10:01:00,
2013-04-18 03:16:00,50.4,43.0,30.08,WNW,298,0.0,1.0,77,0.00,,,0.00,weatherlink.com 1.10,2013-04-18 10:16:00,
2013-04-18 03:31:00,50.2,43.0,30.09,WNW,298,0.0,1.0,76,0.00,,,0.00,weatherlink.com 1.10,2013-04-18 10:31:00,
2013-04-18 03:46:00,50.0,43.0,30.08,WNW,300,0.0,1.0,76,0.00,,,0.00,weatherlink.com 1.10,2013-04-18 10:46:00,
2013-04-18 04:01:00,49.6,42.0,30.09,WNW,292,0.0,1.0,76,0.00,,,0.00,weatherlink.com 1.10,2013-04-18 11:01:00,
2013-04-18 04:16:00,49.2,42.0,30.09,WNW,293,0.0,1.0,77,0.00,,,0.00,weatherlink.com 1.10,2013-04-18 11:16:00,
2013-04-18 04:31:00,49.2,42.0,30.09,WNW,292,0.0,1.0,76,0.00,,,0.00,weatherlink.com 1.10,2013-04-18 11:31:00,
2013-04-18 04:46:00,49.2,41.0,30.09,West,278,1.0,1.0,73,0.00,,,0.00,weatherlink.com 1.10,2013-04-18 11:46:00,
2013-04-18 05:01:00,49.2,40.0,30.09,West,278,0.0,1.0,71,0.00,,,0.00,weatherlink.com 1.10,2013-04-18 12:01:00,
2013-04-18 05:16:00,49.3,40.0,30.09,WNW,283,0.0,1.0,70,0.00,,,0.00,weatherlink.com 1.10,2013-04-18 12:16:00,
2013-04-18 05:31:00,49.5,39.0,30.10,WNW,283,0.0,2.0,68,0.00,,,0.00,weatherlink.com 1.10,2013-04-18 12:31:00,
2013-04-18 05:46:00,48.7,39.0,30.10,WNW,283,0.0,1.0,70,0.00,,,0.00,weatherlink.com 1.10,2013-04-18 12:46:00,
2013-04-18 06:01:00,48.5,38.0,30.11,WNW,283,0.0,1.0,67,0.00,,,0.00,weatherlink.com 1.10,2013-04-18 13:01:00,
2013-04-18 06:17:00,49.5,37.0,30.12,WNW,284,0.0,2.0,62,0.00,,,0.00,weatherlink.com 1.10,2013-04-18 13:17:00,
2013-04-18 06:31:00,49.8,37.0,30.13,NW,313,0.0,1.0,62,0.00,,,0.00,weatherlink.com 1.10,2013-04-18 13:31:00,
2013-04-18 06:46:00,50.5,37.0,30.14,NW,312,0.0,1.0,61,0.00,,,0.00,weatherlink.com 1.10,2013-04-18 13:46:00,
2013-04-18 07:02:00,52.0,37.0,30.14,NW,312,0.0,2.0,57,0.00,,,0.00,weatherlink.com 1.10,2013-04-18 14:02:00,
2013-04-18 07:17:00,53.7,38.0,30.14,NW,312,0.0,2.0,55,0.00,,,0.00,weatherlink.com 1.10,2013-04-18 14:17:00,
2013-04-18 07:32:00,55.8,38.0,30.15,NW,311,2.0,2.0,51,0.00,,,0.00,weatherlink.com 1.10,2013-04-18 14:32:00,
2013-04-18 07:47:00,58.5,36.0,30.16,NW,308,1.0,2.0,43,0.00,,,0.00,weatherlink.com 1.10,2013-04-18 14:47:00,
2013-04-18 08:02:00,62.4,31.0,30.16,NNW,345,2.0,4.0,31,0.00,,,0.00,weatherlink.com 1.10,2013-04-18 15:02:00,
2013-04-18 08:17:00,66.2,20.0,30.16,East,87,8.0,8.0,17,0.00,,,0.00,weatherlink.com 1.10,2013-04-18 15:17:00,
2013-04-18 08:32:00,68.5,12.0,30.16,East,84,3.0,14.0,11,0.00,,,0.00,weatherlink.com 1.10,2013-04-18 15:32:00,
2013-04-18 08:47:00,69.7,11.0,30.15,East,82,9.0,13.0,10,0.00,,,0.00,weatherlink.com 1.10,2013-04-18 15:47:00,
2013-04-18 09:02:00,70.3,6.0,30.15,ENE,59,8.0,14.0,8,0.00,,,0.00,weatherlink.com 1.10,2013-04-18 16:02:00,
2013-04-18 09:17:00,71.2,7.0,30.15,East,100,10.0,15.0,8,0.00,,,0.00,weatherlink.com 1.10,2013-04-18 16:17:00,
2013-04-18 09:32:00,71.9,4.0,30.15,NNE,23,3.0,14.0,7,0.00,,,0.00,weatherlink.com 1.10,2013-04-18 16:32:00,
2013-04-18 09:47:00,72.5,5.0,30.15,ENE,57,8.0,13.0,7,0.00,,,0.00,weatherlink.com 1.10,2013-04-18 16:47:00,
2013-04-18 10:02:00,73.6,6.0,30.15,East,90,4.0,12.0,7,0.00,,,0.00,weatherlink.com 1.10,2013-04-18 17:02:00,
2013-04-18 10:17:00,74.1,6.0,30.16,North,353,3.0,10.0,7,0.00,,,0.00,weatherlink.com 1.10,2013-04-18 17:17:00,
2013-04-18 10:32:00,74.3,3.0,30.16,ESE,105,7.0,12.0,6,0.00,,,0.00,weatherlink.com 1.10,2013-04-18 17:32:00,
2013-04-18 10:47:00,75.5,0.0,30.16,NE,49,3.0,9.0,5,0.00,,,0.00,weatherlink.com 1.10,2013-04-18 17:47:00,
2013-04-18 11:02:00,75.8,0.0,30.16,East,89,3.0,9.0,5,0.00,,,0.00,weatherlink.com 1.10,2013-04-18 18:02:00,
2013-04-18 11:18:00,76.8,-4.0,30.16,East,87,2.0,6.0,4,0.00,,,0.00,weatherlink.com 1.10,2013-04-18 18:18:00,
2013-04-18 11:33:00,77.2,-4.0,30.15,East,100,5.0,8.0,4,0.00,,,0.00,weatherlink.com 1.10,2013-04-18 18:33:00,
2013-04-18 11:48:00,77.5,1.0,30.15,NE,55,5.0,10.0,5,0.00,,,0.00,weatherlink.com 1.10,2013-04-18 18:48:00,
2013-04-18 12:03:00,78.3,-3.0,30.14,WSW,253,1.0,8.0,4,0.00,,,0.00,weatherlink.com 1.10,2013-04-18 19:03:00,
2013-04-18 12:18:00,79.6,-8.0,30.14,NNW,342,1.0,6.0,3,0.00,,,0.00,weatherlink.com 1.10,2013-04-18 19:18:00,
2013-04-18 12:33:00,79.8,-8.0,30.13,West,271,1.0,4.0,3,0.00,,,0.00,weatherlink.com 1.10,2013-04-18 19:33:00,
2013-04-18 12:48:00,79.7,-8.0,30.13,ENE,70,0.0,7.0,3,0.00,,,0.00,weatherlink.com 1.10,2013-04-18 19:48:00,
2013-04-18 13:03:00,80.2,-2.0,30.12,NE,42,4.0,7.0,4,0.00,,,0.00,weatherlink.com 1.10,2013-04-18 20:03:00,
2013-04-18 13:18:00,80.3,-8.0,30.12,NNW,336,2.0,5.0,3,0.00,,,0.00,weatherlink.com 1.10,2013-04-18 20:18:00,
2013-04-18 13:33:00,80.2,-8.0,30.12,SE,139,2.0,6.0,3,0.00,,,0.00,weatherlink.com 1.10,2013-04-18 20:33:00,
2013-04-18 13:48:00,81.7,-7.0,30.11,East,89,2.0,5.0,3,0.00,,,0.00,weatherlink.com 1.10,2013-04-18 20:48:00,
2013-04-18 14:03:00,80.9,-29.0,30.11,East,85,1.0,5.0,1,0.00,,,0.00,weatherlink.com 1.10,2013-04-18 21:03:00,
2013-04-18 14:18:00,81.7,-7.0,30.10,West,262,2.0,6.0,3,0.00,,,0.00,weatherlink.com 1.10,2013-04-18 21:18:00,
2013-04-18 14:33:00,81.0,-1.0,30.10,WSW,250,9.0,13.0,4,0.00,,,0.00,weatherlink.com 1.10,2013-04-18 21:33:00,
2013-04-18 14:49:00,80.4,-2.0,30.09,WNW,299,3.0,11.0,4,0.00,,,0.00,weatherlink.com 1.10,2013-04-18 21:49:00,
2013-04-18 15:04:00,80.9,-1.0,30.09,WSW,248,6.0,9.0,4,0.00,,,0.00,weatherlink.com 1.10,2013-04-18 22:04:00,
2013-04-18 15:19:00,80.4,-2.0,30.08,SW,226,11.0,12.0,4,0.00,,,0.00,weatherlink.com 1.10,2013-04-18 22:19:00,
2013-04-18 15:34:00,80.9,4.0,30.08,SW,231,2.0,14.0,5,0.00,,,0.00,weatherlink.com 1.10,2013-04-18 22:34:00,
2013-04-18 15:49:00,80.7,-1.0,30.08,WSW,250,2.0,15.0,4,0.00,,,0.00,weatherlink.com 1.10,2013-04-18 22:49:00,
2013-04-18 16:04:00,80.7,-1.0,30.07,WNW,302,7.0,12.0,4,0.00,,,0.00,weatherlink.com 1.10,2013-04-18 23:04:00,
2013-04-18 16:19:00,79.8,13.0,30.07,WSW,258,5.0,16.0,8,0.00,,,0.00,weatherlink.com 1.10,2013-04-18 23:19:00,
2013-04-18 16:34:00,78.2,15.0,30.07,WNW,302,12.0,18.0,9,0.00,,,0.00,weatherlink.com 1.10,2013-04-18 23:34:00,
2013-04-18 16:49:00,76.2,16.0,30.08,West,281,6.0,16.0,10,0.00,,,0.00,weatherlink.com 1.10,2013-04-18 23:49:00,
2013-04-18 17:04:00,75.0,12.0,30.09,WSW,248,5.0,16.0,9,0.00,,,0.00,weatherlink.com 1.10,2013-04-19 00:04:00,
2013-04-18 17:19:00,74.7,15.0,30.08,WNW,290,10.0,18.0,10,0.00,,,0.00,weatherlink.com 1.10,2013-04-19 00:19:00,
2013-04-18 17:34:00,74.4,16.0,30.08,West,262,5.0,15.0,11,0.00,,,0.00,weatherlink.com 1.10,2013-04-19 00:34:00,
2013-04-18 17:49:00,73.8,16.0,30.08,West,273,11.0,17.0,11,0.00,,,0.00,weatherlink.com 1.10,2013-04-19 00:49:00,
2013-04-18 18:05:00,74.3,12.0,30.09,WSW,251,10.0,18.0,9,0.00,,,0.00,weatherlink.com 1.10,2013-04-19 01:05:00,
2013-04-18 18:20:00,73.5,16.0,30.09,West,263,4.0,17.0,11,0.00,,,0.00,weatherlink.com 1.10,2013-04-19 01:20:00,
2013-04-18 18:35:00,72.1,22.0,30.09,WNW,303,7.0,14.0,15,0.00,,,0.00,weatherlink.com 1.10,2013-04-19 01:35:00,
2013-04-18 18:50:00,71.6,23.0,30.09,WNW,287,4.0,16.0,16,0.00,,,0.00,weatherlink.com 1.10,2013-04-19 01:50:00,
2013-04-18 19:05:00,70.3,23.0,30.09,WSW,253,6.0,14.0,17,0.00,,,0.00,weatherlink.com 1.10,2013-04-19 02:05:00,
2013-04-18 19:20:00,69.5,21.0,30.09,West,280,2.0,16.0,16,0.00,,,0.00,weatherlink.com 1.10,2013-04-19 02:20:00,
2013-04-18 19:35:00,69.0,22.0,30.09,West,278,8.0,18.0,17,0.00,,,0.00,weatherlink.com 1.10,2013-04-19 02:35:00,
2013-04-18 19:50:00,68.3,26.0,30.09,WNW,284,12.0,13.0,20,0.00,,,0.00,weatherlink.com 1.10,2013-04-19 02:50:00,
2013-04-18 20:05:00,67.9,26.0,30.09,West,281,4.0,13.0,21,0.00,,,0.00,weatherlink.com 1.10,2013-04-19 03:05:00,
2013-04-18 20:20:00,67.3,30.0,30.09,West,279,6.0,13.0,25,0.00,,,0.00,weatherlink.com 1.10,2013-04-19 03:20:00,
2013-04-18 20:35:00,66.9,31.0,30.10,NNW,329,7.0,10.0,26,0.00,,,0.00,weatherlink.com 1.10,2013-04-19 03:35:00,
2013-04-18 20:50:00,66.5,31.0,30.10,WNW,296,3.0,8.0,27,0.00,,,0.00,weatherlink.com 1.10,2013-04-19 03:50:00,
2013-04-18 21:05:00,65.9,32.0,30.11,West,279,0.0,4.0,28,0.00,,,0.00,weatherlink.com 1.10,2013-04-19 04:05:00,
2013-04-18 21:20:00,64.7,32.0,30.11,West,278,0.0,2.0,30,0.00,,,0.00,weatherlink.com 1.10,2013-04-19 04:20:00,
2013-04-18 21:36:00,63.4,33.0,30.11,West,279,0.0,0.0,32,0.00,,,0.00,weatherlink.com 1.10,2013-04-19 04:36:00,
2013-04-18 21:51:00,62.2,34.0,30.11,West,279,0.0,0.0,35,0.00,,,0.00,weatherlink.com 1.10,2013-04-19 04:51:00,
2013-04-18 22:06:00,61.7,34.0,30.11,West,278,0.0,1.0,36,0.00,,,0.00,weatherlink.com 1.10,2013-04-19 05:06:00,
2013-04-18 22:21:00,60.9,34.0,30.11,West,279,0.0,0.0,37,0.00,,,0.00,weatherlink.com 1.10,2013-04-19 05:21:00,
2013-04-18 22:36:00,59.1,35.0,30.11,West,278,0.0,0.0,41,0.00,,,0.00,weatherlink.com 1.10,2013-04-19 05:36:00,
2013-04-18 22:51:00,58.5,36.0,30.11,West,279,0.0,0.0,43,0.00,,,0.00,weatherlink.com 1.10,2013-04-19 05:51:00,
2013-04-18 23:06:00,58.2,37.0,30.11,West,278,0.0,0.0,45,0.00,,,0.00,weatherlink.com 1.10,2013-04-19 06:06:00,
2013-04-18 23:21:00,57.8,37.0,30.11,West,278,0.0,0.0,46,0.00,,,0.00,weatherlink.com 1.10,2013-04-19 06:21:00,
2013-04-18 23:36:00,56.9,36.0,30.11,West,279,0.0,0.0,46,0.00,,,0.00,weatherlink.com 1.10,2013-04-19 06:36:00,
2013-04-18 23:51:00,56.5,38.0,30.10,West,279,0.0,0.0,51,0.00,,,0.00,weatherlink.com 1.10,2013-04-19 06:51:00,